Time;durP1;ratioP1;P1;durP2;ratioP2;P2;SDS_P1;SDS_P2;PMS_P1;PMS_P2;Temp;Humidity;BMP_temperature;BMP_pressure;BME280_temperature;BME280_humidity;BME280_pressure;Samples;Min_cycle;Max_cycle;Signal;HPM_P1;HPM_P2
2022/04/15 00:02:01;;;;;;;18.15;7.95;;;;;;;8.20;100.00;100084.84;6256655;23;20335;-64
2022/04/15 00:04:46;;;;;;;24.23;9.20;;;;;;;8.39;100.00;100119.09;6203387;23;20342;-65
2022/04/15 00:07:30;;;;;;;31.40;10.82;;;;;;;8.44;100.00;100117.34;6253134;23;20460;-65
2022/04/15 00:10:15;;;;;;;25.00;9.75;;;;;;;8.44;100.00;100106.75;6245871;23;20069;-67
2022/04/15 00:13:01;;;;;;;31.42;10.38;;;;;;;8.54;100.00;100113.72;6215557;23;20051;-66
2022/04/15 00:15:45;;;;;;;41.10;10.13;;;;;;;8.28;100.00;100091.84;6224388;23;20276;-65
2022/04/15 00:18:31;;;;;;;29.02;9.50;;;;;;;8.40;100.00;100120.00;6215961;23;20062;-65
2022/04/15 00:21:15;;;;;;;27.30;10.90;;;;;;;8.28;100.00;100120.91;6240595;23;20050;-64
2022/04/15 00:23:59;;;;;;;27.02;9.77;;;;;;;8.13;100.00;100114.81;6227128;23;20078;-71
2022/04/15 00:26:44;;;;;;;32.08;10.60;;;;;;;7.98;100.00;100118.41;6240427;23;20015;-65
2022/04/15 00:29:28;;;;;;;26.38;10.27;;;;;;;8.06;100.00;100119.25;6248099;23;20023;-65
2022/04/15 00:32:13;;;;;;;28.52;10.75;;;;;;;8.02;100.00;100119.25;6227782;23;20020;-63
2022/04/15 00:34:57;;;;;;;29.67;10.35;;;;;;;8.05;100.00;100112.22;6247941;23;20390;-64
2022/04/15 00:37:42;;;;;;;22.23;9.73;;;;;;;8.12;100.00;100118.34;6240474;23;20081;-63
2022/04/15 00:40:27;;;;;;;32.93;10.77;;;;;;;8.17;100.00;100117.44;6240574;23;20158;-63
2022/04/15 00:43:11;;;;;;;30.35;9.80;;;;;;;8.16;100.00;100102.47;6227678;23;20245;-64
2022/04/15 00:46:05;;;;;;;36.80;10.48;;;;;;;8.33;100.00;100112.97;6250373;23;20023;-65
2022/04/15 00:48:50;;;;;;;28.40;10.38;;;;;;;8.20;100.00;100088.34;6215135;23;20058;-63
2022/04/15 00:51:36;;;;;;;28.33;9.38;;;;;;;8.40;100.00;100102.38;6196249;23;20457;-64
2022/04/15 00:54:23;;;;;;;31.50;9.00;;;;;;;8.36;100.00;100108.56;6228889;23;20019;-64
2022/04/15 00:57:10;;;;;;;24.48;8.73;;;;;;;8.32;100.00;100106.81;6253584;23;20023;-64
2022/04/15 00:59:54;;;;;;;32.85;9.57;;;;;;;8.35;100.00;100108.59;6228633;23;20035;-66
2022/04/15 01:02:40;;;;;;;33.75;9.75;;;;;;;8.35;100.00;100106.78;6252937;23;20023;-69
2022/04/15 01:05:25;;;;;;;28.33;8.55;;;;;;;8.39;100.00;100111.19;6244155;23;20027;-65
2022/04/15 01:08:12;;;;;;;22.55;7.93;;;;;;;8.09;100.00;100076.09;6170618;23;1232128;-65
2022/04/15 01:10:58;;;;;;;22.08;7.57;;;;;;;8.08;100.00;100101.63;6249919;23;20104;-65
2022/04/15 01:13:42;;;;;;;29.33;9.65;;;;;;;8.04;100.00;100104.31;6240142;23;20023;-64
2022/04/15 01:16:29;;;;;;;33.35;9.45;;;;;;;8.08;100.00;100092.84;6207388;23;20085;-64
2022/04/15 01:19:13;;;;;;;26.05;9.50;;;;;;;8.13;100.00;100097.22;6229408;23;20099;-64
2022/04/15 01:22:02;;;;;;;23.77;8.70;;;;;;;8.16;100.00;100102.47;6249212;23;20023;-66
2022/04/15 01:24:47;;;;;;;17.25;8.10;;;;;;;8.11;100.00;100098.97;6197632;23;20142;-64
2022/04/15 01:27:39;;;;;;;27.05;8.63;;;;;;;8.07;100.00;100099.00;6219346;23;20692;-63
2022/04/15 01:30:23;;;;;;;27.13;8.25;;;;;;;7.96;100.00;100101.69;6250872;23;20018;-66
2022/04/15 01:33:08;;;;;;;30.10;8.48;;;;;;;8.02;100.00;100101.66;6252286;23;20142;-65
2022/04/15 01:35:52;;;;;;;22.58;9.48;;;;;;;7.88;100.00;100063.00;6249447;23;20111;-64
2022/04/15 01:38:38;;;;;;;22.52;8.13;;;;;;;8.05;100.00;100091.09;6218818;23;20073;-64
2022/04/15 01:41:22;;;;;;;27.38;7.38;;;;;;;8.08;100.00;100090.19;6250910;23;20436;-65
2022/04/15 01:44:08;;;;;;;24.80;8.63;;;;;;;8.00;100.00;100090.22;6228696;23;20350;-64
2022/04/15 01:46:52;;;;;;;25.23;7.63;;;;;;;8.00;100.00;100092.00;6207756;23;20058;-64
2022/04/15 01:49:38;;;;;;;24.73;8.90;;;;;;;7.99;100.00;100092.91;6250747;23;20027;-69
2022/04/15 01:52:22;;;;;;;27.23;9.98;;;;;;;7.81;100.00;100062.16;6241502;23;20065;-64
2022/04/15 01:55:07;;;;;;;29.60;9.77;;;;;;;7.85;100.00;100061.28;6249317;23;20023;-64
2022/04/15 01:57:52;;;;;;;34.15;9.60;;;;;;;8.07;100.00;100091.94;6251681;23;20448;-64
2022/04/15 02:00:36;;;;;;;32.80;8.80;;;;;;;8.10;100.00;100089.31;6217355;23;20023;-64
2022/04/15 02:03:20;;;;;;;28.92;9.38;;;;;;;7.99;100.00;100053.28;6228661;23;20062;-64
2022/04/15 02:06:05;;;;;;;31.52;9.05;;;;;;;8.21;100.00;100079.59;6256288;23;20457;-64
2022/04/15 02:08:49;;;;;;;19.42;8.15;;;;;;;8.35;100.00;100087.44;6233551;23;20065;-65
2022/04/15 02:11:34;;;;;;;26.50;8.90;;;;;;;8.43;100.00;100083.00;6233655;23;20023;-65
2022/04/15 02:14:20;;;;;;;27.27;8.95;;;;;;;8.47;100.00;100074.16;6221085;23;20496;-67
2022/04/15 02:17:04;;;;;;;23.75;8.77;;;;;;;8.39;100.00;100054.84;6218333;23;20023;-63
2022/04/15 02:19:50;;;;;;;22.98;7.70;;;;;;;8.39;100.00;100050.41;6247796;23;20330;-63
2022/04/15 02:22:34;;;;;;;27.55;8.75;;;;;;;8.62;100.00;100081.94;6217232;23;20023;-65
2022/04/15 02:25:19;;;;;;;27.60;8.38;;;;;;;8.68;100.00;100074.88;6250333;23;20027;-65
2022/04/15 02:28:03;;;;;;;26.15;8.32;;;;;;;8.72;100.00;100081.91;6249734;23;20484;-64
2022/04/15 02:30:48;;;;;;;26.25;8.98;;;;;;;8.73;100.00;100081.00;6248789;23;20018;-64
2022/04/15 02:33:32;;;;;;;35.72;9.02;;;;;;;8.79;100.00;100075.66;6247057;23;20019;-69
2022/04/15 02:36:17;;;;;;;23.95;8.93;;;;;;;8.70;100.00;100057.22;6225932;23;20081;-65
2022/04/15 02:39:01;;;;;;;30.17;8.45;;;;;;;8.87;100.00;100073.81;6213791;23;20055;-63
2022/04/15 02:41:46;;;;;;;29.38;8.90;;;;;;;8.81;100.00;100059.78;6248805;23;20074;-69
2022/04/15 02:44:31;;;;;;;26.83;8.45;;;;;;;8.91;100.00;100067.63;6227573;23;20065;-64
2022/04/15 02:47:16;;;;;;;27.33;9.13;;;;;;;8.95;100.00;100073.78;6207181;23;20027;-64
2022/04/15 02:50:02;;;;;;;41.03;9.20;;;;;;;8.89;100.00;100084.38;6250922;23;20088;-64
2022/04/15 02:52:49;;;;;;;35.15;9.68;;;;;;;8.68;100.00;100059.03;6216315;23;20019;-70
2022/04/15 02:55:33;;;;;;;35.72;10.63;;;;;;;8.70;100.00;100086.31;6250761;23;20022;-64
2022/04/15 02:58:18;;;;;;;28.70;9.07;;;;;;;8.67;100.00;100090.75;6223774;23;20023;-65
2022/04/15 03:01:03;;;;;;;27.80;7.85;;;;;;;8.60;100.00;100068.78;6204445;23;20449;-66
2022/04/15 03:03:47;;;;;;;22.65;8.15;;;;;;;8.79;100.00;100088.00;6228301;23;20089;-63
2022/04/15 03:06:32;;;;;;;24.60;8.02;;;;;;;8.72;100.00;100067.78;6245328;23;20016;-64
2022/04/15 03:09:16;;;;;;;32.22;8.38;;;;;;;8.90;100.00;100086.13;6254946;23;20053;-65
2022/04/15 03:12:01;;;;;;;25.48;8.75;;;;;;;8.90;100.00;100075.56;6245450;23;20019;-65
2022/04/15 03:14:45;;;;;;;42.47;9.82;;;;;;;8.86;100.00;100081.75;6255890;23;20385;-64
2022/04/15 03:17:31;;;;;;;40.45;9.40;;;;;;;8.87;100.00;100094.13;6245230;23;20020;-64
2022/04/15 03:20:15;;;;;;;38.65;8.85;;;;;;;8.81;100.00;100092.41;6232725;23;20019;-64
2022/04/15 03:22:59;;;;;;;27.60;8.65;;;;;;;8.85;100.00;100095.88;6232667;23;20023;-63
2022/04/15 03:25:44;;;;;;;39.75;10.45;;;;;;;8.81;100.00;100095.03;6232381;23;20038;-65
2022/04/15 03:28:28;;;;;;;37.55;10.90;;;;;;;8.67;100.00;100057.25;6255425;23;20406;-64
2022/04/15 03:31:13;;;;;;;59.75;11.23;;;;;;;8.86;100.00;100093.22;6232703;23;20019;-64
2022/04/15 03:33:57;;;;;;;37.83;12.13;;;;;;;8.79;100.00;100088.00;6257283;23;20022;-63
2022/04/15 03:36:42;;;;;;;34.13;11.25;;;;;;;8.60;100.00;100087.28;6257489;23;20019;-65
2022/04/15 03:39:26;;;;;;;31.20;10.55;;;;;;;8.52;100.00;100088.22;6234636;23;20078;-66
2022/04/15 03:42:11;;;;;;;40.08;11.65;;;;;;;8.26;100.00;100068.97;6247564;23;20374;-64
2022/04/15 03:44:55;;;;;;;36.38;10.90;;;;;;;8.40;100.00;100086.53;6234172;23;20026;-66
2022/04/15 03:47:40;;;;;;;33.53;10.70;;;;;;;8.48;100.00;100087.38;6202966;23;20023;-63
2022/04/15 03:50:25;;;;;;;31.75;9.93;;;;;;;8.62;100.00;100100.44;6223728;23;20138;-67
2022/04/15 03:53:09;;;;;;;35.20;11.35;;;;;;;8.50;100.00;100082.94;6234113;23;20097;-64
2022/04/15 03:55:54;;;;;;;37.92;11.10;;;;;;;8.45;100.00;100089.13;6213540;23;20075;-68
2022/04/15 03:58:38;;;;;;;48.53;10.70;;;;;;;8.45;100.00;100090.00;6222968;23;20043;-65
2022/04/15 04:01:24;;;;;;;47.07;11.57;;;;;;;8.20;100.00;100072.50;6181000;23;20399;-66
2022/04/15 04:04:09;;;;;;;41.17;11.57;;;;;;;8.12;100.00;100091.94;6232939;23;20249;-71
2022/04/15 04:06:53;;;;;;;43.20;12.02;;;;;;;7.89;100.00;100083.25;6245889;23;20019;-67
2022/04/15 04:09:41;;;;;;;44.92;11.93;;;;;;;7.94;100.00;100078.81;6248055;23;20019;-65
2022/04/15 04:12:30;;;;;;;43.33;12.18;;;;;;;8.07;100.00;100085.81;6224295;23;20027;-65
2022/04/15 04:15:15;;;;;;;36.50;11.45;;;;;;;8.36;100.00;100078.63;6213379;23;20387;-65
2022/04/15 04:18:00;;;;;;;41.05;13.00;;;;;;;8.60;100.00;100076.69;6234275;23;20489;-67
2022/04/15 04:20:43;;;;;;;54.03;12.97;;;;;;;8.83;100.00;100073.88;6223588;23;20023;-64
2022/04/15 04:23:28;;;;;;;65.47;12.82;;;;;;;9.01;100.00;100071.94;6234301;23;20736;-65
2022/04/15 04:26:12;;;;;;;46.60;12.57;;;;;;;9.13;100.00;100074.47;6256972;23;20421;-65
2022/04/15 04:28:57;;;;;;;29.75;11.95;;;;;;;9.09;100.00;100080.69;6202065;23;20368;-64
2022/04/15 04:31:41;;;;;;;35.63;11.40;;;;;;;9.07;100.00;100074.53;6234462;23;20087;-64
2022/04/15 04:34:26;;;;;;;26.27;10.55;;;;;;;8.96;100.00;100067.59;6256674;23;20121;-65
2022/04/15 04:37:10;;;;;;;30.30;9.93;;;;;;;8.60;100.00;100065.25;6256341;23;20019;-64
2022/04/15 04:39:55;;;;;;;22.02;9.90;;;;;;;8.63;100.00;100036.16;6212709;23;20023;-64
2022/04/15 04:42:39;;;;;;;33.63;9.95;;;;;;;8.79;100.00;100062.44;6233307;23;20019;-65
2022/04/15 04:45:23;;;;;;;29.00;9.68;;;;;;;8.98;100.00;100073.75;6246699;23;20027;-64
2022/04/15 04:48:08;;;;;;;35.80;10.03;;;;;;;8.99;100.00;100043.75;6233929;23;20061;-65
2022/04/15 04:50:52;;;;;;;32.07;9.63;;;;;;;9.29;100.00;100033.75;6256254;23;20262;-64
2022/04/15 04:53:36;;;;;;;37.13;9.40;;;;;;;9.61;100.00;100046.59;6256116;23;20296;-63
2022/04/15 04:56:20;;;;;;;39.28;10.25;;;;;;;9.81;100.00;100068.41;6223034;23;20356;-64
2022/04/15 04:59:05;;;;;;;28.70;9.77;;;;;;;9.98;100.00;100071.75;6233366;23;20047;-65
2022/04/15 05:01:49;;;;;;;44.78;10.00;;;;;;;10.12;100.00;100071.63;6202378;23;20338;-68
2022/04/15 05:04:34;;;;;;;26.08;9.90;;;;;;;10.09;100.00;100053.09;6181461;23;20074;-64
2022/04/15 05:07:19;;;;;;;32.67;10.35;;;;;;;10.18;100.00;100072.41;6232993;23;20058;-65
2022/04/15 05:10:07;;;;;;;29.67;9.57;;;;;;;10.29;100.00;100064.31;6223367;23;20066;-65
2022/04/15 05:12:52;;;;;;;28.15;9.75;;;;;;;10.33;100.00;100074.84;6256216;23;20022;-64
2022/04/15 05:15:36;;;;;;;32.60;9.98;;;;;;;10.00;100.00;100077.91;6233671;23;20043;-64
2022/04/15 05:18:20;;;;;;;30.63;9.48;;;;;;;9.79;100.00;100074.63;6246553;23;20035;-64
2022/04/15 05:21:05;;;;;;;27.17;10.25;;;;;;;9.77;100.00;100071.16;6256287;23;20326;-64
2022/04/15 05:23:49;;;;;;;25.98;9.73;;;;;;;9.83;100.00;100069.28;6255585;23;20026;-66
2022/04/15 05:26:36;;;;;;;26.23;10.98;;;;;;;9.82;100.00;100035.78;6233117;23;20476;-64
2022/04/15 05:29:20;;;;;;;29.65;9.80;;;;;;;9.99;100.00;100073.50;6232698;23;20034;-64
2022/04/15 05:32:05;;;;;;;22.67;9.40;;;;;;;10.20;100.00;100073.25;6256309;23;20023;-65
2022/04/15 05:34:49;;;;;;;31.20;9.65;;;;;;;10.52;100.00;100064.84;6256020;23;20035;-64
2022/04/15 05:37:33;;;;;;;25.17;10.20;;;;;;;10.69;100.00;100039.81;6202041;23;20325;-65
2022/04/15 05:40:19;;;;;;;28.75;10.27;;;;;;;10.92;100.00;100037.63;6255780;23;20019;-64
2022/04/15 05:43:03;;;;;;;34.70;11.10;;;;;;;11.28;100.00;100057.34;6222821;23;20443;-64
2022/04/15 05:45:48;;;;;;;44.15;10.77;;;;;;;11.51;100.00;100061.31;6255987;23;20023;-65
2022/04/15 05:48:32;;;;;;;36.53;11.13;;;;;;;11.64;100.00;100059.34;6256501;23;20027;-65
2022/04/15 05:51:19;;;;;;;40.45;11.02;;;;;;;11.68;100.00;100061.03;6255630;23;20381;-65
2022/04/15 05:54:03;;;;;;;37.25;11.60;;;;;;;11.77;100.00;100058.19;6255672;23;20105;-64
2022/04/15 05:56:47;;;;;;;28.25;11.88;;;;;;;11.63;100.00;100063.78;6255871;23;20058;-64
2022/04/15 05:59:32;;;;;;;31.55;11.82;;;;;;;11.70;100.00;100053.91;6256604;23;20073;-65
2022/04/15 06:02:16;;;;;;;30.73;12.57;;;;;;;11.66;100.00;100028.31;6255721;23;20085;-65
2022/04/15 06:05:02;;;;;;;30.98;13.02;;;;;;;11.99;100.00;100054.19;6255592;23;20484;-67
2022/04/15 06:07:46;;;;;;;30.77;13.10;;;;;;;12.17;100.00;100057.34;6201233;23;20028;-65
2022/04/15 06:10:31;;;;;;;36.20;13.98;;;;;;;12.23;100.00;100059.00;6256151;23;20023;-65
2022/04/15 06:13:19;;;;;;;22.80;10.90;;;;;;;11.85;100.00;100065.13;6222784;23;20022;-65
2022/04/15 06:16:09;;;;;;;44.45;12.02;;;;;;;11.68;100.00;100063.69;6245762;23;20089;-64
2022/04/15 06:18:53;;;;;;;57.80;14.52;;;;;;;11.55;100.00;100051.53;6245980;23;20019;-67
2022/04/15 06:21:37;;;;;;;45.40;18.42;;;;;;;11.55;100.00;100059.50;6255717;23;20023;-69
2022/04/15 06:24:22;;;;;;;42.70;18.40;;;;;;;11.67;100.00;100061.97;6232537;23;20334;-65
2022/04/15 06:27:06;;;;;;;43.72;18.20;;;;;;;12.05;100.00;100060.25;6245714;23;20023;-64
2022/04/15 06:29:51;;;;;;;41.00;17.23;;;;;;;11.89;100.00;100055.28;6232778;23;20499;-65
2022/04/15 06:32:36;;;;;;;28.63;13.98;;;;;;;12.16;100.00;100057.38;6232818;23;20154;-65
2022/04/15 06:35:20;;;;;;;27.38;12.85;;;;;;;12.34;98.30;100068.47;6222720;23;20073;-65
2022/04/15 06:38:05;;;;;;;38.25;15.52;;;;;;;12.29;99.13;100064.16;6201699;23;20315;-66
2022/04/15 06:40:49;;;;;;;18.65;7.35;;;;;;;12.24;94.00;100047.44;6232885;23;20019;-67
2022/04/15 06:43:33;;;;;;;17.25;7.05;;;;;;;12.52;94.30;100032.59;6200938;23;20050;-68
2022/04/15 06:46:21;;;;;;;18.08;6.90;;;;;;;12.77;93.44;100055.91;6245150;23;20019;-66
2022/04/15 06:49:05;;;;;;;16.52;7.60;;;;;;;13.01;92.87;100036.72;6201216;23;20062;-67
2022/04/15 06:51:50;;;;;;;27.20;12.13;;;;;;;13.22;89.92;100048.59;6222587;23;20331;-65
2022/04/15 06:54:35;;;;;;;28.63;8.05;;;;;;;13.17;87.80;100045.16;6232405;23;20073;-66
2022/04/15 06:57:20;;;;;;;12.65;6.38;;;;;;;13.32;84.85;100047.44;6232200;23;20015;-64
2022/04/15 07:00:05;;;;;;;23.67;7.00;;;;;;;13.50;86.58;100046.94;6245329;23;20090;-66
2022/04/15 07:02:50;;;;;;;22.92;8.90;;;;;;;13.77;87.80;100035.53;6245405;23;20022;-64
2022/04/15 07:05:34;;;;;;;18.73;9.05;;;;;;;14.41;84.89;100037.16;6245242;23;20384;-65
2022/04/15 07:08:19;;;;;;;24.15;8.93;;;;;;;14.96;80.47;100032.69;6231755;23;20019;-65
2022/04/15 07:11:03;;;;;;;26.75;9.02;;;;;;;15.53;76.40;100040.50;6255595;23;20023;-65
2022/04/15 07:13:47;;;;;;;26.20;6.97;;;;;;;14.83;78.49;100033.13;6232817;23;20138;-65
2022/04/15 07:16:34;;;;;;;27.40;7.05;;;;;;;14.84;78.19;100038.44;6255224;23;20142;-64
2022/04/15 07:19:19;;;;;;;18.25;5.75;;;;;;;14.99;75.34;100013.00;6180430;23;20457;-64
2022/04/15 07:22:05;;;;;;;12.75;5.07;;;;;;;15.40;71.54;100000.00;6255268;23;20476;-63
2022/04/15 07:24:50;;;;;;;14.98;5.43;;;;;;;15.97;69.61;100023.69;6232363;23;20108;-65
2022/04/15 07:27:34;;;;;;;18.02;5.07;;;;;;;16.83;65.03;100023.84;6255556;23;20062;-65
2022/04/15 07:30:19;;;;;;;13.20;5.15;;;;;;;17.02;59.91;100020.31;6244908;23;20019;-68
2022/04/15 07:33:04;;;;;;;9.32;4.85;;;;;;;16.54;60.62;100021.50;6222730;23;20015;-67
2022/04/15 07:35:49;;;;;;;;;;;;;;;16.66;66.83;100021.00;6233015;23;20023;-67
2022/04/15 07:38:33;;;;;;;11.20;4.53;;;;;;;17.31;58.84;100019.09;6211557;23;19946;-66
2022/04/15 07:41:17;;;;;;;13.63;5.35;;;;;;;17.32;52.57;100013.66;6232796;23;20449;-67
2022/04/15 07:44:10;;;;;;;12.10;4.25;;;;;;;17.38;49.04;100013.41;6232698;23;20089;-67
2022/04/15 07:46:55;;;;;;;10.23;3.85;;;;;;;17.15;48.56;100016.22;6257527;23;20329;-66
2022/04/15 07:49:39;;;;;;;13.77;4.40;;;;;;;17.28;49.55;100009.38;6235295;23;20022;-64
2022/04/15 07:52:23;;;;;;;14.35;4.20;;;;;;;18.16;47.02;100022.41;6258112;23;20103;-66
2022/04/15 07:55:09;;;;;;;11.32;4.22;;;;;;;18.34;46.19;100015.25;6257587;23;20076;-66
2022/04/15 07:57:54;;;;;;;16.73;4.75;;;;;;;19.15;44.96;100019.31;6222364;23;20415;-64
2022/04/15 08:00:39;;;;;;;17.38;4.68;;;;;;;19.03;42.30;99988.53;6222195;23;20074;-64
2022/04/15 08:03:23;;;;;;;10.20;3.33;;;;;;;18.77;38.71;100010.47;6244990;23;20019;-68
2022/04/15 08:06:08;;;;;;;9.48;3.97;;;;;;;19.12;37.99;100000.66;6244654;23;20022;-65
2022/04/15 08:08:54;;;;;;;9.60;3.58;;;;;;;19.53;37.28;100005.66;6222611;23;20086;-69
2022/04/15 08:11:39;;;;;;;13.00;3.50;;;;;;;20.36;35.47;99993.91;6254910;23;20023;-64
2022/04/15 08:14:23;;;;;;;12.50;3.75;;;;;;;21.73;31.82;100016.31;6255239;23;20019;-71
2022/04/15 08:17:09;;;;;;;12.20;3.75;;;;;;;22.73;29.36;100018.91;6255214;23;20031;-66
2022/04/15 08:19:53;;;;;;;12.80;3.72;;;;;;;22.25;31.07;100019.34;6257115;23;20022;-65
2022/04/15 08:22:37;;;;;;;13.50;4.00;;;;;;;21.15;33.49;100017.19;6224120;23;20105;-65
2022/04/15 08:25:22;;;;;;;;;;;;;;;22.20;37.10;100012.50;6257556;23;20058;-65
2022/04/15 08:28:07;;;;;;;10.70;4.28;;;;;;;22.61;31.37;100005.31;6233703;23;19964;-64
2022/04/15 08:30:51;;;;;;;;;;;;;;;22.77;29.43;100006.91;6257426;23;20323;-64
2022/04/15 08:33:37;;;;;;;11.38;4.03;;;;;;;22.14;31.41;100002.94;6223714;23;19949;-65
2022/04/15 08:36:22;;;;;;;12.68;3.72;;;;;;;22.64;28.85;99992.47;6212562;23;20070;-64
2022/04/15 08:39:06;;;;;;;13.93;3.80;;;;;;;21.57;30.48;99991.19;6202801;23;20019;-65
2022/04/15 08:41:53;;;;;;;;;;;;;;;20.70;36.42;99991.06;6257231;23;20055;-64
2022/04/15 08:44:37;;;;;;;20.33;3.83;;;;;;;20.40;33.93;99983.81;6202542;23;20061;-64
2022/04/15 08:47:24;;;;;;;7.43;3.00;;;;;;;19.94;32.07;99957.69;6256495;23;20038;-63
2022/04/15 08:50:11;;;;;;;10.10;2.90;;;;;;;19.62;33.76;99978.25;6212227;23;20464;-64
2022/04/15 08:52:57;;;;;;;12.65;2.90;;;;;;;20.03;33.22;99985.00;6246106;23;20070;-65
2022/04/15 08:55:41;;;;;;;10.40;2.72;;;;;;;20.37;30.31;99960.63;6233059;23;20019;-64
2022/04/15 08:58:28;;;;;;;24.02;3.80;;;;;;;20.92;30.79;99982.59;6233765;23;20027;-67
2022/04/15 09:01:12;;;;;;;4.90;2.20;;;;;;;22.10;27.76;99977.06;6212144;23;20023;-64
2022/04/15 09:03:57;;;;;;;;;;;;;;;22.65;29.91;99977.09;6202453;23;20101;-64
2022/04/15 09:06:43;;;;;;;11.40;2.65;;;;;;;22.90;26.30;99971.81;6233348;23;19910;-64
2022/04/15 09:09:29;;;;;;;5.30;2.10;;;;;;;23.42;25.42;99976.31;6232994;23;20109;-65
2022/04/15 09:12:15;;;;;;;9.52;2.70;;;;;;;23.99;23.92;99987.66;6202043;23;20078;-64
2022/04/15 09:15:11;;;;;;;3.25;2.10;;;;;;;24.33;22.69;99973.41;6249459;23;20019;-64
2022/04/15 09:17:59;;;;;;;5.43;1.40;;;;;;;23.97;22.28;99965.25;6195684;23;20122;-69
2022/04/15 09:20:43;;;;;;;4.97;2.00;;;;;;;22.25;24.36;99951.78;6216956;23;20019;-67
2022/04/15 09:23:28;;;;;;;5.65;1.80;;;;;;;21.56;25.28;99948.97;6250050;23;20456;-64
2022/04/15 09:26:12;;;;;;;;;;;;;;;21.47;27.11;99968.44;6231031;23;20066;-63
2022/04/15 09:28:58;;;;;;;4.77;1.90;;;;;;;21.45;25.44;99969.50;6201463;23;19938;-65
2022/04/15 09:31:45;;;;;;;5.13;1.80;;;;;;;22.76;24.32;99950.22;6233372;23;20242;-65
2022/04/15 09:34:29;;;;;;;6.75;1.90;;;;;;;22.15;24.35;99957.88;6222937;23;20504;-64
2022/04/15 09:37:17;;;;;;;8.55;1.77;;;;;;;21.81;24.26;99946.53;6222877;23;20035;-64
2022/04/15 09:40:15;;;;;;;9.95;1.83;;;;;;;21.08;25.04;99951.06;6222975;23;20018;-65
2022/04/15 09:42:59;;;;;;;8.00;3.28;;;;;;;19.90;27.91;99908.53;6253305;23;20074;-64
2022/04/15 09:45:45;;;;;;;8.73;2.72;;;;;;;19.11;30.91;99939.78;6249590;23;20019;-72
2022/04/15 09:48:29;;;;;;;5.25;1.95;;;;;;;18.65;30.92;99941.25;6245143;23;20023;-65
2022/04/15 09:51:20;;;;;;;8.10;2.20;;;;;;;18.91;31.34;99926.50;6224163;23;20050;-64
2022/04/15 09:54:06;;;;;;;9.68;1.92;;;;;;;18.68;32.19;99935.72;6256543;23;20035;-66
2022/04/15 09:56:53;;;;;;;5.20;1.90;;;;;;;18.08;34.51;99932.44;6222967;23;20019;-65
2022/04/15 09:59:41;;;;;;;10.70;1.90;;;;;;;17.49;37.42;99928.03;6256039;23;20126;-65
2022/04/15 10:02:26;;;;;;;7.20;1.88;;;;;;;17.29;38.23;99928.03;6202396;23;20023;-65
2022/04/15 10:05:12;;;;;;;5.85;1.85;;;;;;;17.28;39.69;99931.66;6211477;23;20023;-70
2022/04/15 10:07:59;;;;;;;7.57;2.10;;;;;;;17.07;40.67;99907.59;6233193;23;20019;-64
2022/04/15 10:10:43;;;;;;;8.00;1.83;;;;;;;16.95;41.25;99929.56;6222789;23;20484;-64
2022/04/15 10:13:28;;;;;;;12.65;2.15;;;;;;;16.99;41.52;99923.16;6233118;23;20343;-64
2022/04/15 10:16:13;;;;;;;;;;;;;;;16.94;41.56;99938.56;6255858;23;20081;-64
2022/04/15 10:19:01;;;;;;;3.42;1.40;;;;;;;17.15;40.94;99932.25;6244930;23;19910;-65
2022/04/15 10:21:51;;;;;;;5.00;1.70;;;;;;;17.63;42.09;99919.34;6256127;23;20023;-66
2022/04/15 10:24:36;;;;;;;8.13;2.00;;;;;;;16.88;45.97;99925.41;6232683;23;20069;-65
2022/04/15 10:27:30;;;;;;;4.45;1.60;;;;;;;16.96;47.19;99926.84;6232617;23;20326;-64
2022/04/15 10:30:19;;;;;;;5.55;1.83;;;;;;;16.57;47.77;99933.00;6255224;23;20058;-65
2022/04/15 10:33:04;;;;;;;6.82;2.55;;;;;;;16.38;48.87;99900.72;6232642;23;20023;-65
2022/04/15 10:35:57;;;;;;;3.53;1.65;;;;;;;16.19;51.33;99915.81;6254814;23;20449;-64
2022/04/15 10:39:03;;;;;;;3.40;1.40;;;;;;;16.03;54.84;99925.38;6255328;23;20019;-65
2022/04/15 10:41:48;;;;;;;6.53;3.08;;;;;;;15.37;58.95;99909.25;6232417;23;20145;-63
2022/04/15 10:44:35;;;;;;;7.55;2.50;;;;;;;15.58;57.79;99935.16;6201546;23;20070;-66
2022/04/15 10:47:20;;;;;;;5.68;1.90;;;;;;;15.25;57.29;99908.78;6201274;23;20018;-64
2022/04/15 10:50:06;;;;;;;7.28;1.80;;;;;;;15.27;57.63;99910.47;6201462;23;20448;-65
2022/04/15 10:52:51;;;;;;;6.38;1.63;;;;;;;15.56;56.26;99946.84;6244974;23;20015;-65
2022/04/15 10:55:52;;;;;;;8.63;1.80;;;;;;;15.59;57.54;99934.22;6254823;23;20122;-65
2022/04/15 11:02:14;;;;;;;8.77;2.58;;;;;;;15.05;61.77;99904.16;6103120;23;20033;-64
2022/04/15 11:04:58;;;;;;;4.80;1.88;;;;;;;14.86;63.51;99932.44;6073528;23;20101;-66
2022/04/15 11:07:53;;;;;;;4.25;2.22;;;;;;;14.74;64.64;99927.53;6073278;23;20058;-67
2022/04/15 11:10:50;;;;;;;3.77;1.87;;;;;;;14.81;65.93;99928.19;6094033;23;20033;-65
2022/04/15 11:13:41;;;;;;;4.05;2.00;;;;;;;14.68;67.57;99941.06;6083085;23;20420;-65
2022/04/15 11:16:47;;;;;;;7.10;2.63;;;;;;;14.51;69.42;99938.09;6083208;23;20109;-66
2022/04/15 11:19:33;;;;;;;11.20;2.50;;;;;;;14.45;69.14;99924.97;6083637;23;20033;-65
2022/04/15 11:22:18;;;;;;;10.68;2.67;;;;;;;14.72;67.79;99931.16;6103930;23;20388;-66
2022/04/15 11:25:02;;;;;;;8.40;3.28;;;;;;;14.82;65.80;99925.47;6103560;23;20033;-65
2022/04/15 11:27:47;;;;;;;;;;;;;;;14.72;65.88;99932.03;6103709;23;20049;-65
2022/04/15 11:30:31;;;;;;;6.07;2.58;;;;;;;14.50;68.00;99935.47;6103288;23;19936;-67
2022/04/15 11:33:17;;;;;;;11.27;3.13;;;;;;;14.39;68.80;99924.31;6093157;23;20105;-65
2022/04/15 11:36:01;;;;;;;9.35;2.92;;;;;;;14.58;68.70;99920.97;6052855;23;20033;-65
2022/04/15 11:38:48;;;;;;;4.85;2.88;;;;;;;14.48;69.48;99930.19;6182197;23;20047;-65
2022/04/15 11:41:33;;;;;;;18.83;4.10;;;;;;;14.32;71.21;99926.28;6224372;23;20156;-65
2022/04/15 11:44:17;;;;;;;6.85;3.00;;;;;;;14.30;71.42;99917.47;6224241;23;20393;-66
2022/04/15 11:47:21;;;;;;;5.70;2.38;;;;;;;14.20;72.63;99907.97;6225048;23;20042;-67
2022/04/15 11:50:05;;;;;;;11.77;3.08;;;;;;;14.20;73.09;99909.78;6201960;23;20106;-65
2022/04/15 11:52:50;;;;;;;7.70;3.22;;;;;;;14.19;72.83;99889.38;6225252;23;20028;-67
2022/04/15 11:55:50;;;;;;;11.02;4.20;;;;;;;14.40;73.12;99896.69;6226626;23;20028;-66
2022/04/15 11:58:35;;;;;;;13.63;4.80;;;;;;;13.84;73.58;99838.03;6216793;23;20031;-66
2022/04/15 12:01:27;;;;;;;15.75;5.55;;;;;;;14.41;74.75;99896.66;6173540;23;20091;-66
2022/04/15 12:04:12;;;;;;;14.10;6.13;;;;;;;14.45;73.06;99898.28;6194018;23;20055;-66
2022/04/15 12:06:57;;;;;;;7.68;5.50;;;;;;;14.46;71.59;99897.34;6207727;22;20076;-66
2022/04/15 12:09:44;;;;;;;15.48;6.57;;;;;;;14.68;71.30;99886.81;6223199;23;20477;-66
2022/04/15 12:12:30;;;;;;;11.65;6.45;;;;;;;14.93;70.17;99891.25;6223939;23;20063;-66
2022/04/15 12:15:14;;;;;;;17.40;7.80;;;;;;;15.09;69.02;99880.88;6233748;23;20074;-66
2022/04/15 12:17:59;;;;;;;14.55;7.82;;;;;;;15.32;67.53;99881.78;6233810;23;20035;-66
2022/04/15 12:20:44;;;;;;;16.63;7.30;;;;;;;15.31;67.01;99855.97;6256640;23;20074;-67
2022/04/15 12:23:28;;;;;;;17.40;7.15;;;;;;;15.46;66.46;99863.47;6223781;23;20027;-65
2022/04/15 12:26:13;;;;;;;14.27;6.32;;;;;;;15.74;67.54;99880.19;6223247;23;20026;-65
2022/04/15 12:32:29;;;;;;;7.78;3.25;;;;;;;16.45;65.14;99861.22;6256192;23;19937;-67
2022/04/15 12:35:14;;;;;;;16.73;5.43;;;;;;;16.65;61.13;99842.50;6223635;23;20421;-66
2022/04/15 12:38:00;;;;;;;8.57;3.85;;;;;;;17.07;59.41;99857.59;6233878;23;20050;-66
2022/04/15 12:40:45;;;;;;;8.43;3.30;;;;;;;17.28;57.56;99853.03;6234271;23;20027;-66
2022/04/15 12:43:30;;;;;;;8.05;3.83;;;;;;;17.51;56.70;99853.78;6233578;23;20027;-66
2022/04/15 12:46:18;;;;;;;8.93;3.65;;;;;;;17.89;55.56;99855.47;6202467;23;20031;-65
2022/04/15 12:49:02;;;;;;;6.60;3.25;;;;;;;17.94;53.58;99857.97;6202794;23;20074;-67
2022/04/15 12:51:48;;;;;;;7.20;3.65;;;;;;;17.83;54.11;99855.78;6233185;23;20027;-66
2022/04/15 12:54:32;;;;;;;;;;;;;;;18.05;54.23;99856.47;6223862;23;20407;-67